Time;durP1;ratioP1;P1;durP2;ratioP2;P2;SDS_P1;SDS_P2;PMS_P1;PMS_P2;Temp;Humidity;BMP_temperature;BMP_pressure;BME280_temperature;BME280_humidity;BME280_pressure;Samples;Min_cycle;Max_cycle;Signal;HPM_P1;HPM_P2
2022/05/21 00:01:32;;;;;;;17.00;11.88;;;;;;;16.87;nan;100794.44;5083736;28;20032;-38
2022/05/21 00:03:58;;;;;;;12.93;11.63;;;;;;;16.83;nan;100798.03;5090460;28;20423;-39
2022/05/21 00:06:24;;;;;;;14.05;11.95;;;;;;;16.81;nan;100792.09;5085253;28;20111;-39
2022/05/21 00:08:50;;;;;;;15.88;12.05;;;;;;;16.88;nan;100806.09;5087727;28;20052;-38
2022/05/21 00:11:15;;;;;;;14.13;12.20;;;;;;;16.90;nan;100801.19;5088413;28;20809;-39
2022/05/21 00:13:41;;;;;;;15.35;12.20;;;;;;;16.86;nan;100803.66;5084404;28;20028;-38
2022/05/21 00:16:06;;;;;;;17.73;13.23;;;;;;;16.95;nan;100800.31;5083218;28;20026;-39
2022/05/21 00:18:33;;;;;;;15.27;12.20;;;;;;;16.94;nan;100804.94;5088493;28;20019;-38
2022/05/21 00:20:59;;;;;;;14.18;12.10;;;;;;;17.01;nan;100799.97;5089106;28;20028;-38
2022/05/21 00:23:28;;;;;;;13.02;10.38;;;;;;;17.08;nan;100800.44;5086027;28;20024;-38
2022/05/21 00:26:03;;;;;;;13.00;9.27;;;;;;;17.08;nan;100800.44;5090283;28;20023;-39
2022/05/21 00:28:30;;;;;;;11.00;7.90;;;;;;;17.11;nan;100794.44;5087813;28;20358;-38
2022/05/21 00:30:57;;;;;;;9.25;7.95;;;;;;;17.15;nan;100800.88;5088444;28;20031;-39
2022/05/21 00:33:24;;;;;;;10.07;7.78;;;;;;;17.13;nan;100802.28;5085486;28;20028;-38
2022/05/21 00:35:51;;;;;;;7.82;6.97;;;;;;;17.06;nan;100799.94;5088840;28;20038;-38
2022/05/21 00:38:17;;;;;;;8.20;6.63;;;;;;;17.04;nan;100799.38;5084069;28;20058;-38
2022/05/21 00:40:43;;;;;;;7.90;6.53;;;;;;;17.06;nan;100816.16;5088015;28;20031;-38
2022/05/21 00:43:37;;;;;;;9.20;5.35;;;;;;;16.96;nan;100810.88;5083903;28;20023;-39
2022/05/21 00:46:04;;;;;;;6.03;5.22;;;;;;;16.98;nan;100816.78;5046112;28;20301;-38
2022/05/21 00:48:30;;;;;;;6.55;4.50;;;;;;;16.96;nan;100818.97;5088010;28;20024;-38
2022/05/21 00:50:56;;;;;;;7.40;4.07;;;;;;;16.93;nan;100830.38;5088541;28;20572;-38
2022/05/21 00:53:22;;;;;;;6.57;4.00;;;;;;;16.91;nan;100829.88;5084152;28;20017;-39
2022/05/21 00:55:50;;;;;;;5.80;3.50;;;;;;;16.89;nan;100840.19;5091923;28;20111;-38
2022/05/21 01:01:06;;;;;;;9.45;3.58;;;;;;;16.76;nan;100835.44;5087385;28;20039;-38
2022/05/21 01:03:31;;;;;;;3.70;2.80;;;;;;;16.71;nan;100841.72;5086885;28;20129;-38
2022/05/21 01:06:00;;;;;;;5.72;2.85;;;;;;;16.68;nan;100849.59;5088052;28;20469;-38
2022/05/21 01:08:25;;;;;;;3.15;2.40;;;;;;;16.62;nan;100851.50;5089470;28;20107;-39
2022/05/21 01:10:57;;;;;;;3.47;2.42;;;;;;;16.65;nan;100860.94;5089317;28;20120;-38
2022/05/21 01:13:26;;;;;;;2.80;2.17;;;;;;;16.61;nan;100872.34;5085900;28;20497;-38
2022/05/21 01:15:53;;;;;;;5.43;1.90;;;;;;;16.59;nan;100858.31;5089433;28;20055;-39
2022/05/21 01:18:20;;;;;;;1.98;1.40;;;;;;;16.58;nan;100882.94;5087403;28;20020;-38
2022/05/21 01:20:48;;;;;;;2.00;1.70;;;;;;;16.53;nan;100870.28;5085841;28;20032;-38
2022/05/21 01:23:16;;;;;;;4.78;1.38;;;;;;;16.50;nan;100881.63;5087565;28;20501;-39
2022/05/21 01:25:43;;;;;;;3.40;1.60;;;;;;;16.47;nan;100892.22;5089167;28;20028;-38
2022/05/21 01:28:14;;;;;;;2.25;1.70;;;;;;;16.54;nan;100896.22;5089283;28;20124;-38
2022/05/21 01:30:39;;;;;;;1.60;1.50;;;;;;;16.51;nan;100898.66;5088806;28;20031;-38
2022/05/21 01:33:07;;;;;;;2.97;1.40;;;;;;;16.55;nan;100900.53;5086251;28;20038;-38
2022/05/21 01:35:33;;;;;;;1.35;1.20;;;;;;;16.49;nan;100917.09;5080540;28;20607;-39
2022/05/21 01:37:59;;;;;;;3.88;1.10;;;;;;;16.37;nan;100903.94;5079196;28;20416;-39
2022/05/21 01:40:25;;;;;;;1.10;1.00;;;;;;;16.34;nan;100912.63;5079730;28;20024;-39
2022/05/21 01:45:36;;;;;;;0.60;0.57;;;;;;;16.27;nan;100901.31;5079985;28;20058;-38
2022/05/21 01:48:03;;;;;;;3.05;0.90;;;;;;;16.20;nan;100909.75;5081987;28;20038;-38
2022/05/21 01:50:30;;;;;;;0.70;0.70;;;;;;;16.23;nan;100903.78;5079450;28;20126;-39
2022/05/21 01:52:55;;;;;;;3.50;0.77;;;;;;;16.13;nan;100930.06;5083631;28;20032;-39
2022/05/21 01:55:21;;;;;;;4.88;0.70;;;;;;;16.13;nan;100940.88;5088777;28;20027;-39
2022/05/21 01:57:46;;;;;;;3.40;0.95;;;;;;;16.11;nan;100943.03;5091660;28;20020;-39
2022/05/21 02:00:13;;;;;;;3.20;1.02;;;;;;;16.07;nan;100936.59;5091094;28;20020;-39
2022/05/21 02:02:39;;;;;;;1.95;0.93;;;;;;;16.10;nan;100936.84;5089390;28;20554;-39
2022/05/21 02:05:05;;;;;;;2.30;0.90;;;;;;;16.05;nan;100947.69;5090230;28;20108;-39
2022/05/21 02:07:32;;;;;;;2.60;0.75;;;;;;;16.05;nan;100968.50;5083884;28;20062;-39
2022/05/21 02:09:58;;;;;;;1.95;0.80;;;;;;;16.01;nan;100966.34;5083544;28;20019;-39
2022/05/21 02:12:24;;;;;;;6.97;0.90;;;;;;;15.98;nan;100974.22;5088618;28;20032;-39
2022/05/21 02:14:50;;;;;;;2.97;1.17;;;;;;;15.95;nan;100978.25;5085052;28;20031;-39
2022/05/21 02:17:16;;;;;;;1.00;1.00;;;;;;;15.88;nan;100975.06;5086380;28;20114;-39
2022/05/21 02:19:42;;;;;;;2.22;0.73;;;;;;;15.86;nan;100996.16;5087343;28;20020;-39
2022/05/21 02:22:08;;;;;;;1.75;0.63;;;;;;;15.77;nan;100992.41;5086081;28;20023;-39
2022/05/21 02:24:34;;;;;;;2.38;0.73;;;;;;;15.74;nan;101008.34;5078158;28;20915;-39
2022/05/21 02:26:59;;;;;;;3.70;0.60;;;;;;;15.78;nan;101014.81;5086646;28;20420;-39
2022/05/21 02:29:25;;;;;;;3.20;0.90;;;;;;;15.72;nan;101000.53;5085890;28;20084;-39
2022/05/21 02:31:51;;;;;;;5.28;0.73;;;;;;;15.61;nan;101005.16;5080340;28;20112;-39
2022/05/21 02:34:17;;;;;;;3.58;0.80;;;;;;;15.55;nan;101018.91;5083414;28;20426;-39
2022/05/21 02:39:28;;;;;;;5.10;1.15;;;;;;;15.39;nan;101023.53;5080953;28;20173;-38
2022/05/21 02:41:58;;;;;;;6.55;1.10;;;;;;;15.34;nan;101027.06;5084391;28;20030;-39
2022/05/21 02:44:24;;;;;;;4.00;1.20;;;;;;;15.25;nan;101036.78;5086646;28;20019;-39
2022/05/21 02:46:51;;;;;;;2.63;1.10;;;;;;;15.23;nan;101030.84;5084526;28;20027;-39
2022/05/21 02:49:16;;;;;;;3.65;1.00;;;;;;;15.15;nan;101039.50;5085090;28;20020;-39
2022/05/21 02:51:42;;;;;;;1.33;0.90;;;;;;;15.09;nan;101054.91;5081342;28;20393;-39
2022/05/21 02:54:09;;;;;;;3.10;1.38;;;;;;;15.02;nan;101053.53;5082340;28;20107;-40
2022/05/21 02:56:36;;;;;;;1.98;0.90;;;;;;;15.03;nan;101063.25;5084063;28;20032;-39
2022/05/21 02:59:06;;;;;;;2.20;1.15;;;;;;;14.96;nan;101065.41;5082323;28;20127;-39
2022/05/21 03:01:33;;;;;;;2.88;1.13;;;;;;;14.90;nan;101074.56;5084033;28;20047;-40
2022/05/21 03:04:00;;;;;;;2.35;1.38;;;;;;;14.79;nan;101077.28;5082577;28;20491;-40
2022/05/21 03:06:25;;;;;;;2.95;1.30;;;;;;;14.78;nan;101085.63;5083844;28;20028;-37
2022/05/21 03:11:35;;;;;;;3.35;1.15;;;;;;;14.70;nan;101084.25;5085569;28;20139;-37
2022/05/21 03:14:00;;;;;;;2.97;1.00;;;;;;;14.76;nan;101103.97;5084603;28;20552;-37
2022/05/21 03:16:26;;;;;;;2.10;1.70;;;;;;;14.73;nan;101094.53;5086106;28;20027;-37
2022/05/21 03:18:51;;;;;;;1.95;1.27;;;;;;;14.75;nan;101111.25;5085006;28;20024;-37
2022/05/21 03:21:18;;;;;;;1.85;1.15;;;;;;;14.78;nan;101109.91;5086362;28;20688;-37
2022/05/21 03:23:43;;;;;;;4.85;1.48;;;;;;;14.74;nan;101109.66;5085454;28;20051;-39
2022/05/21 03:26:09;;;;;;;2.50;1.40;;;;;;;14.74;nan;101116.94;5078711;28;20375;-37
2022/05/21 03:28:34;;;;;;;1.85;1.40;;;;;;;14.75;nan;101116.66;5083778;28;20521;-37
2022/05/21 03:31:00;;;;;;;1.85;1.17;;;;;;;14.75;nan;101127.44;5076544;28;20651;-38
2022/05/21 03:33:25;;;;;;;1.33;1.17;;;;;;;14.75;nan;101130.16;5084173;28;20024;-38
2022/05/21 03:35:51;;;;;;;1.55;1.33;;;;;;;14.77;nan;101128.00;5084190;28;20089;-37
2022/05/21 03:38:19;;;;;;;4.68;1.42;;;;;;;14.75;nan;101127.44;5081584;28;20028;-37
2022/05/21 03:40:45;;;;;;;2.30;1.52;;;;;;;14.70;nan;101132.00;5080120;28;20169;-37
2022/05/21 03:43:10;;;;;;;6.07;1.77;;;;;;;14.66;nan;101142.50;5078775;28;20023;-37
2022/05/21 03:45:36;;;;;;;1.63;1.45;;;;;;;14.69;nan;101143.88;5084353;28;20095;-37
2022/05/21 03:48:05;;;;;;;6.65;1.50;;;;;;;14.61;nan;101147.91;5078368;28;20036;-37
2022/05/21 03:50:32;;;;;;;2.05;1.70;;;;;;;14.56;nan;101165.97;5078385;28;20040;-37
2022/05/21 03:52:59;;;;;;;2.10;1.90;;;;;;;14.50;nan;101162.41;5080243;28;20024;-37
2022/05/21 03:55:25;;;;;;;4.65;1.70;;;;;;;14.47;nan;101174.53;5082140;28;20024;-38
2022/05/21 03:57:50;;;;;;;4.45;1.92;;;;;;;14.46;nan;101183.69;5082616;28;20030;-36
2022/05/21 04:00:18;;;;;;;5.43;2.67;;;;;;;14.42;nan;101192.56;5081589;28;20055;-37
2022/05/21 04:02:45;;;;;;;2.88;2.08;;;;;;;14.42;nan;101176.38;5081803;28;20039;-37
2022/05/21 04:05:12;;;;;;;2.97;1.90;;;;;;;14.37;nan;101198.72;5082215;28;20034;-37
2022/05/21 04:07:39;;;;;;;3.05;2.00;;;;;;;14.38;nan;101202.25;5083494;28;20489;-37
2022/05/21 04:10:06;;;;;;;4.72;2.00;;;;;;;14.38;nan;101219.22;5081961;28;20931;-36
2022/05/21 04:12:32;;;;;;;7.60;2.35;;;;;;;14.32;nan;101203.28;5080828;28;20031;-37
2022/05/21 04:14:58;;;;;;;2.83;1.90;;;;;;;14.29;nan;101225.34;5079822;28;20024;-37
2022/05/21 04:17:23;;;;;;;3.80;1.85;;;;;;;14.31;nan;101234.81;5080136;28;20623;-37
2022/05/21 04:19:48;;;;;;;2.88;1.90;;;;;;;14.29;nan;101217.28;5084251;28;20093;-37
2022/05/21 04:22:14;;;;;;;4.50;1.85;;;;;;;14.26;nan;101229.38;5077498;28;20115;-37
2022/05/21 04:24:40;;;;;;;2.42;1.95;;;;;;;14.23;nan;101223.72;5078998;28;20024;-37
2022/05/21 04:27:07;;;;;;;1.98;1.80;;;;;;;14.23;nan;101247.97;5082303;28;20024;-37
2022/05/21 04:29:35;;;;;;;2.95;1.75;;;;;;;14.10;nan;101247.34;5082892;28;20405;-37
2022/05/21 04:32:01;;;;;;;4.13;2.28;;;;;;;14.10;nan;101244.66;5078726;28;20545;-37
2022/05/21 04:34:26;;;;;;;3.22;1.45;;;;;;;14.10;nan;101254.63;5082280;28;20115;-37
2022/05/21 04:36:52;;;;;;;2.30;1.65;;;;;;;14.13;nan;101252.22;5081757;28;20024;-37
2022/05/21 04:39:17;;;;;;;4.20;1.55;;;;;;;14.08;nan;101260.28;5086912;28;20023;-37
2022/05/21 04:41:43;;;;;;;3.75;1.58;;;;;;;14.03;nan;101262.94;5082747;28;20046;-38
2022/05/21 04:44:09;;;;;;;1.95;1.60;;;;;;;13.98;nan;101273.66;5083283;28;20584;-37
2022/05/21 04:46:35;;;;;;;3.08;1.20;;;;;;;14.00;nan;101294.94;5083543;28;20085;-37
2022/05/21 04:49:02;;;;;;;2.45;1.33;;;;;;;13.87;nan;101301.59;5080013;28;20020;-37
2022/05/21 04:51:27;;;;;;;4.53;1.20;;;;;;;13.68;nan;101303.84;5083758;28;20070;-37
2022/05/21 04:53:53;;;;;;;4.50;1.30;;;;;;;13.58;nan;101307.25;5084301;28;20051;-37
2022/05/21 04:56:19;;;;;;;1.65;1.20;;;;;;;13.49;nan;101314.16;5086081;28;20141;-38
2022/05/21 04:58:44;;;;;;;1.98;1.35;;;;;;;13.43;nan;101304.38;5084739;28;20585;-37
2022/05/21 05:01:10;;;;;;;1.50;1.20;;;;;;;13.44;nan;101316.78;5087563;28;20027;-37
2022/05/21 05:03:36;;;;;;;2.00;1.20;;;;;;;13.48;nan;101311.72;5081501;28;20031;-37
2022/05/21 05:06:02;;;;;;;1.98;1.10;;;;;;;13.56;nan;101308.56;5081840;28;20031;-37
2022/05/21 05:08:28;;;;;;;4.07;1.17;;;;;;;13.64;nan;101315.34;5083682;28;20063;-38
2022/05/21 05:10:53;;;;;;;3.42;1.00;;;;;;;13.64;nan;101323.44;5085880;28;20055;-37
2022/05/21 05:13:19;;;;;;;1.92;0.88;;;;;;;13.74;nan;101332.44;5084841;28;20028;-38
2022/05/21 05:15:46;;;;;;;4.18;0.98;;;;;;;13.78;nan;101330.84;5083586;28;20085;-37
2022/05/21 05:18:15;;;;;;;1.23;0.90;;;;;;;13.81;nan;101326.84;5083555;28;20031;-38
2022/05/21 05:20:41;;;;;;;2.67;0.93;;;;;;;13.81;nan;101332.22;5085288;28;20027;-37
2022/05/21 05:23:08;;;;;;;1.80;0.70;;;;;;;13.72;nan;101337.28;5080205;28;20389;-37
2022/05/21 05:25:34;;;;;;;1.23;0.68;;;;;;;13.73;nan;101341.59;5086700;28;20028;-37
2022/05/21 05:28:00;;;;;;;1.27;0.70;;;;;;;13.74;nan;101353.16;5082176;28;20024;-37
2022/05/21 05:30:26;;;;;;;1.45;0.60;;;;;;;13.74;nan;101363.94;5083493;28;20032;-37
2022/05/21 05:32:52;;;;;;;1.67;0.68;;;;;;;13.75;nan;101376.34;5078761;28;20119;-38
2022/05/21 05:35:18;;;;;;;0.98;0.60;;;;;;;13.68;nan;101376.56;5085593;28;20521;-37
2022/05/21 05:37:44;;;;;;;3.35;0.90;;;;;;;13.71;nan;101375.22;5084301;28;20425;-37
2022/05/21 05:40:20;;;;;;;0.95;0.68;;;;;;;13.72;nan;101376.84;5082684;28;20062;-38
2022/05/21 05:42:48;;;;;;;7.45;0.70;;;;;;;13.72;nan;101377.66;5080794;28;20032;-38
2022/05/21 05:45:15;;;;;;;3.03;0.93;;;;;;;13.73;nan;101389.25;5081936;28;20023;-38
2022/05/21 05:47:40;;;;;;;2.40;0.80;;;;;;;13.74;nan;101388.19;5080707;28;20024;-38
2022/05/21 05:50:07;;;;;;;2.35;0.90;;;;;;;13.79;nan;101399.00;5081643;28;20758;-38
2022/05/21 05:52:32;;;;;;;1.08;0.73;;;;;;;13.77;nan;101387.66;5078968;28;20112;-38
2022/05/21 05:54:58;;;;;;;2.47;1.10;;;;;;;13.82;nan;101393.09;5081915;28;20102;-37
2022/05/21 05:57:23;;;;;;;3.03;0.85;;;;;;;13.90;nan;101395.34;5079798;28;20027;-38
2022/05/21 05:59:50;;;;;;;3.28;1.05;;;;;;;13.98;nan;101400.28;5085370;28;20046;-37
2022/05/21 06:05:02;;;;;;;1.15;0.63;;;;;;;14.09;nan;101391.22;5081503;28;20039;-38
2022/05/21 06:07:28;;;;;;;6.32;1.20;;;;;;;14.25;nan;101392.19;5079386;28;20059;-38
2022/05/21 06:10:01;;;;;;;3.08;1.23;;;;;;;14.24;nan;101398.63;5084225;28;20452;-38
2022/05/21 06:12:27;;;;;;;4.03;1.25;;;;;;;14.15;nan;101406.38;5083544;28;20035;-37
2022/05/21 06:14:53;;;;;;;3.53;1.38;;;;;;;14.15;nan;101403.66;5083969;28;20028;-39
2022/05/21 06:17:19;;;;;;;4.03;1.60;;;;;;;14.19;nan;101404.00;5081943;28;20020;-37
2022/05/21 06:19:44;;;;;;;3.70;1.40;;;;;;;14.27;nan;101417.00;5082486;28;20032;-38
2022/05/21 06:22:10;;;;;;;3.83;1.50;;;;;;;14.30;nan;101415.66;5081041;28;20405;-38
2022/05/21 06:24:36;;;;;;;6.28;1.52;;;;;;;14.20;nan;101425.28;5080814;28;20039;-37
2022/05/21 06:27:03;;;;;;;8.70;1.60;;;;;;;14.07;nan;101416.81;5083034;28;20098;-37
2022/05/21 06:29:29;;;;;;;4.53;1.27;;;;;;;14.12;nan;101419.53;5082384;28;20028;-37
2022/05/21 06:31:54;;;;;;;7.55;1.55;;;;;;;14.22;nan;101419.66;5084521;28;20102;-37
2022/05/21 06:34:20;;;;;;;2.17;1.40;;;;;;;14.39;nan;101414.94;5077468;28;20488;-38
2022/05/21 06:36:45;;;;;;;4.82;1.40;;;;;;;14.63;nan;101420.81;5082003;28;20031;-37
2022/05/21 06:39:11;;;;;;;6.32;1.65;;;;;;;14.68;nan;101417.34;5083470;28;20027;-37
2022/05/21 06:41:37;;;;;;;3.15;1.40;;;;;;;14.67;nan;101419.22;5083104;28;20019;-37
2022/05/21 06:44:03;;;;;;;3.65;1.33;;;;;;;14.82;nan;101419.34;5078835;28;20024;-38
2022/05/21 06:46:28;;;;;;;2.92;1.20;;;;;;;14.86;nan;101424.22;5085978;28;20027;-38
2022/05/21 06:48:54;;;;;;;3.60;1.30;;;;;;;14.78;nan;101417.44;5079445;28;20501;-38
2022/05/21 06:51:20;;;;;;;3.67;1.27;;;;;;;14.48;nan;101428.78;5084304;28;20032;-37
2022/05/21 06:53:45;;;;;;;4.07;1.25;;;;;;;14.38;nan;101434.91;5080805;28;20656;-38
2022/05/21 06:56:15;;;;;;;2.72;1.35;;;;;;;14.42;nan;101433.31;5078301;28;20031;-38
2022/05/21 06:58:42;;;;;;;2.25;1.45;;;;;;;14.55;nan;101442.06;5080701;28;20027;-37
2022/05/21 07:01:09;;;;;;;4.90;1.20;;;;;;;14.64;nan;101435.94;5082645;28;20032;-37
2022/05/21 07:03:35;;;;;;;3.72;1.40;;;;;;;14.62;nan;101450.75;5078423;28;20550;-37
2022/05/21 07:08:45;;;;;;;3.27;1.03;;;;;;;14.50;nan;101448.22;5078161;28;20708;-37
2022/05/21 07:11:10;;;;;;;2.78;0.88;;;;;;;14.64;nan;101454.81;5079805;28;20273;-37
2022/05/21 07:13:36;;;;;;;2.65;1.13;;;;;;;14.82;nan;101448.19;5081388;28;20024;-37
2022/05/21 07:16:01;;;;;;;4.63;1.15;;;;;;;15.05;nan;101444.28;5080816;28;20032;-37
2022/05/21 07:18:27;;;;;;;2.50;1.13;;;;;;;15.15;nan;101443.56;5079743;28;20111;-37
2022/05/21 07:20:54;;;;;;;2.67;1.17;;;;;;;15.27;nan;101449.56;5084525;28;20031;-38
2022/05/21 07:23:21;;;;;;;1.48;0.88;;;;;;;15.25;nan;101439.00;5078450;28;20026;-37
2022/05/21 07:25:47;;;;;;;4.38;1.23;;;;;;;15.29;nan;101445.53;5081422;28;20027;-38
2022/05/21 07:28:14;;;;;;;5.53;1.15;;;;;;;15.34;nan;101425.84;5077605;28;20024;-37
2022/05/21 07:30:42;;;;;;;3.53;1.20;;;;;;;15.37;nan;101431.50;5083091;28;20020;-38
2022/05/21 07:33:15;;;;;;;3.40;1.27;;;;;;;15.36;nan;101451.50;5075030;28;20473;-38
2022/05/21 07:35:41;;;;;;;5.47;1.20;;;;;;;15.46;nan;101456.16;5074161;28;20032;-38
2022/05/21 07:38:09;;;;;;;3.95;1.33;;;;;;;15.58;nan;101447.81;5081431;28;20473;-37
2022/05/21 07:40:36;;;;;;;5.28;1.13;;;;;;;15.57;nan;101448.88;5082789;28;20051;-37
2022/05/21 07:43:18;;;;;;;4.90;1.30;;;;;;;15.56;nan;101463.47;5080453;28;20557;-38
2022/05/21 07:45:45;;;;;;;4.88;1.20;;;;;;;15.55;nan;101475.34;5074921;28;20040;-38
2022/05/21 07:48:13;;;;;;;5.93;1.30;;;;;;;15.45;nan;101476.13;5080801;28;20031;-38
2022/05/21 07:50:40;;;;;;;5.93;1.70;;;;;;;15.46;nan;101466.94;5077312;28;20472;-37
2022/05/21 07:53:15;;;;;;;7.78;1.30;;;;;;;15.45;nan;101476.13;5079756;28;20032;-38
2022/05/21 07:55:46;;;;;;;6.15;1.60;;;;;;;15.37;nan;101471.22;5080292;28;20031;-37
2022/05/21 07:58:12;;;;;;;5.95;1.70;;;;;;;15.41;nan;101456.91;5080555;28;20028;-38
2022/05/21 08:00:38;;;;;;;4.60;1.02;;;;;;;15.60;nan;101475.38;5079972;28;20040;-40
2022/05/21 08:03:04;;;;;;;6.00;1.85;;;;;;;15.74;nan;101478.41;5079157;28;20039;-40
2022/05/21 08:05:30;;;;;;;6.28;3.10;;;;;;;15.70;nan;101472.75;5082425;28;20020;-39
2022/05/21 08:07:56;;;;;;;4.32;1.30;;;;;;;15.71;nan;101477.88;5082759;28;20032;-39
2022/05/21 08:10:22;;;;;;;4.63;1.58;;;;;;;15.69;nan;101479.22;5080911;28;20474;-40
2022/05/21 08:12:50;;;;;;;5.50;1.70;;;;;;;15.74;nan;101483.81;5079914;28;20060;-37
2022/05/21 08:15:16;;;;;;;3.58;1.63;;;;;;;15.77;nan;101486.81;5086696;28;20035;-37
2022/05/21 08:17:41;;;;;;;5.18;1.80;;;;;;;15.83;nan;101499.28;5083707;28;20016;-37
2022/05/21 08:20:11;;;;;;;3.60;1.45;;;;;;;15.84;nan;101494.69;5086078;28;20038;-36
2022/05/21 08:28:21;;;;;;;6.47;2.00;;;;;;;16.20;nan;101487.50;5074629;28;20085;-37
2022/05/21 08:30:48;;;;;;;7.72;1.52;;;;;;;16.20;nan;101488.31;5081107;28;20032;-37
2022/05/21 08:33:16;;;;;;;6.00;1.80;;;;;;;16.25;nan;101493.72;5085960;28;20032;-37
2022/05/21 08:35:41;;;;;;;5.90;1.77;;;;;;;16.32;nan;101491.53;5086154;28;20028;-37
2022/05/21 08:38:08;;;;;;;3.75;1.48;;;;;;;16.39;nan;101495.91;5086447;28;20039;-37
2022/05/21 08:40:55;;;;;;;9.02;1.65;;;;;;;16.36;nan;101505.38;5084966;28;20148;-37
2022/05/21 08:43:48;;;;;;;2.30;1.50;;;;;;;16.27;nan;101505.06;5084187;28;20046;-37
2022/05/21 08:46:23;;;;;;;5.57;1.30;;;;;;;16.19;nan;101502.09;5082645;28;20043;-39
2022/05/21 08:48:55;;;;;;;;;;;;;;;16.14;nan;101504.75;5089881;28;20035;-37
2022/05/21 08:51:24;;;;;;;4.05;1.50;;;;;;;16.04;nan;101510.16;5084003;28;19912;-37
2022/05/21 08:53:52;;;;;;;2.63;1.35;;;;;;;15.92;nan;101511.19;5082091;28;20027;-38
2022/05/21 08:56:20;;;;;;;1.98;1.27;;;;;;;15.81;nan;101509.53;5086147;28;20110;-37
2022/05/21 08:58:55;;;;;;;3.42;1.45;;;;;;;15.78;nan;101509.22;5081343;28;20039;-37
2022/05/21 09:01:24;;;;;;;2.47;1.17;;;;;;;15.77;nan;101504.91;5085630;28;20038;-37
2022/05/21 09:03:53;;;;;;;3.83;1.52;;;;;;;15.81;nan;101520.34;5085606;28;20023;-37
2022/05/21 09:06:18;;;;;;;3.83;1.55;;;;;;;15.75;nan;101518.69;5073312;28;20071;-37
2022/05/21 09:08:53;;;;;;;3.90;1.50;;;;;;;15.78;nan;101517.34;5088122;28;20117;-37
2022/05/21 09:11:29;;;;;;;5.47;1.42;;;;;;;15.86;nan;101533.88;5087322;28;20056;-37
2022/05/21 09:14:06;;;;;;;4.30;1.50;;;;;;;15.91;nan;101525.78;5083170;28;20115;-37
2022/05/21 09:16:55;;;;;;;3.70;1.50;;;;;;;15.88;nan;101526.31;5087242;28;20127;-37
2022/05/21 09:19:48;;;;;;;3.38;1.45;;;;;;;15.81;nan;101533.84;5085280;28;20112;-39
2022/05/21 09:22:18;;;;;;;2.47;1.23;;;;;;;15.85;nan;101534.94;5080757;28;20078;-37
2022/05/21 09:24:52;;;;;;;4.07;1.52;;;;;;;15.89;nan;101524.41;5083403;28;20028;-37
2022/05/21 09:27:27;;;;;;;5.20;1.77;;;;;;;16.03;nan;101517.44;5086740;28;20378;-37
2022/05/21 09:30:11;;;;;;;3.67;1.67;;;;;;;16.13;nan;101519.34;5086024;28;20388;-37
2022/05/21 09:32:37;;;;;;;3.42;1.80;;;;;;;16.12;nan;101513.13;5080504;28;20039;-37
2022/05/21 09:35:27;;;;;;;3.95;1.60;;;;;;;16.00;nan;101531.50;5087799;28;20028;-37
2022/05/21 09:37:53;;;;;;;6.07;1.60;;;;;;;15.93;nan;101520.91;5085027;28;20012;-37
2022/05/21 09:40:31;;;;;;;3.47;1.30;;;;;;;15.82;nan;101515.75;5085771;28;20123;-37
2022/05/21 09:45:43;;;;;;;4.55;1.67;;;;;;;15.66;nan;101525.69;5087287;28;20084;-37
2022/05/21 09:48:08;;;;;;;2.28;1.40;;;;;;;15.69;nan;101527.84;5082733;28;20486;-37
2022/05/21 09:50:48;;;;;;;2.75;1.77;;;;;;;15.65;nan;101524.06;5088629;28;20161;-37
2022/05/21 09:53:32;;;;;;;2.28;1.50;;;;;;;15.56;nan;101529.09;5083996;28;20028;-37
2022/05/21 09:56:33;;;;;;;2.50;1.50;;;;;;;15.53;nan;101534.22;5084605;28;20032;-37
2022/05/21 09:59:14;;;;;;;4.97;1.73;;;;;;;15.53;nan;101537.72;5052529;28;20047;-37
2022/05/21 10:01:44;;;;;;;3.17;1.52;;;;;;;15.52;nan;101524.50;5097092;22;20032;-52
2022/05/21 10:04:22;;;;;;;3.20;2.10;;;;;;;15.42;nan;101533.34;5100788;28;20039;-49
2022/05/21 10:06:54;;;;;;;5.43;2.17;;;;;;;15.27;nan;101538.66;5103563;27;20024;-48
2022/05/21 10:12:24;;;;;;;4.82;2.60;;;;;;;15.09;nan;101543.41;5098376;28;21745;-50
2022/05/21 10:15:04;;;;;;;6.20;2.50;;;;;;;15.00;nan;101538.72;5099864;28;20500;-51
2022/05/21 10:17:41;;;;;;;45.58;29.60;;;;;;;15.03;nan;101541.72;5099213;28;20024;-49
2022/05/21 10:20:52;;;;;;;4.78;2.78;;;;;;;15.03;nan;101546.28;5094430;28;20031;-50
2022/05/21 10:23:39;;;;;;;57.20;28.48;;;;;;;15.03;nan;101543.59;5051636;27;20114;-50
2022/05/21 10:26:23;;;;;;;58.83;29.40;;;;;;;15.12;nan;101544.75;5096056;28;20122;-50
2022/05/21 10:29:13;;;;;;;11.52;7.40;;;;;;;15.18;nan;101534.81;5099439;28;20031;-54
2022/05/21 10:31:51;;;;;;;34.55;19.13;;;;;;;15.26;nan;101535.16;5095804;28;20042;-49
2022/05/21 10:34:29;;;;;;;17.33;9.48;;;;;;;15.34;nan;101533.84;5093309;28;20606;-52
2022/05/21 10:37:13;;;;;;;19.70;14.50;;;;;;;15.45;nan;101529.31;5098965;28;20031;-49
2022/05/21 10:40:13;;;;;;;3.03;2.40;;;;;;;15.66;nan;101515.69;5096759;28;21138;-52
2022/05/21 10:42:51;;;;;;;4.55;2.38;;;;;;;16.08;nan;101520.16;5096619;28;20547;-48
2022/05/21 10:45:33;;;;;;;5.85;2.10;;;;;;;16.37;nan;101509.69;5095824;28;20035;-49
2022/05/21 10:48:17;;;;;;;4.70;2.47;;;;;;;16.49;nan;101512.94;5102239;28;20028;-49
2022/05/21 10:50:59;;;;;;;6.97;3.10;;;;;;;16.59;nan;101515.66;5095548;28;20038;-54
2022/05/21 10:53:50;;;;;;;5.22;2.90;;;;;;;16.51;nan;101515.38;5096721;28;20031;-51
2022/05/21 10:56:34;;;;;;;7.18;2.95;;;;;;;16.45;nan;101511.84;5094176;28;20036;-49
2022/05/21 10:59:18;;;;;;;6.30;3.05;;;;;;;16.33;nan;101506.69;5098283;27;20085;-49
2022/05/21 11:02:29;;;;;;;5.03;2.83;;;;;;;16.17;nan;101504.25;5093069;28;20040;-52
2022/05/21 11:05:10;;;;;;;3.38;2.42;;;;;;;16.37;nan;101498.88;5072169;28;20031;-52
2022/05/21 11:07:56;;;;;;;6.50;2.78;;;;;;;16.61;nan;101501.88;5094513;28;20038;-49
2022/05/21 11:10:24;;;;;;;;;;;;;;;16.78;nan;101498.94;5097167;28;20569;-50
2022/05/21 11:12:55;;;;;;;4.80;2.25;;;;;;;17.05;nan;101485.88;5096981;28;19973;-51
2022/05/21 11:15:27;;;;;;;8.57;3.20;;;;;;;17.11;nan;101490.22;5096138;28;20090;-49
2022/05/21 11:18:22;;;;;;;4.78;2.38;;;;;;;16.99;nan;101487.00;5094749;28;20023;-49
2022/05/21 11:21:06;;;;;;;7.90;3.38;;;;;;;17.12;nan;101494.56;5099886;28;20026;-51
2022/05/21 11:24:08;;;;;;;5.77;2.90;;;;;;;17.08;nan;101492.69;5098213;28;20656;-50
2022/05/21 11:27:01;;;;;;;7.65;2.88;;;;;;;17.10;nan;101496.75;5096303;28;20043;-51
2022/05/21 11:29:34;;;;;;;5.07;2.80;;;;;;;17.11;nan;101481.31;5095020;28;20081;-49
2022/05/21 11:37:33;;;;;;;6.32;2.83;;;;;;;17.21;nan;101476.66;5095023;28;20086;-54
2022/05/21 11:39:59;;;;;;;6.63;3.00;;;;;;;17.38;nan;101478.25;5095794;28;20118;-49
2022/05/21 11:42:32;;;;;;;5.60;2.45;;;;;;;17.70;nan;101469.75;5096387;28;20130;-49
2022/05/21 11:45:25;;;;;;;3.20;2.53;;;;;;;17.72;nan;101470.28;5099630;28;20097;-53
2022/05/21 11:48:11;;;;;;;9.07;2.75;;;;;;;17.58;nan;101464.63;5098499;28;21097;-50
2022/05/21 11:50:37;;;;;;;3.80;2.42;;;;;;;17.47;nan;101479.31;5101456;28;20358;-50
2022/05/21 11:53:33;;;;;;;4.40;3.00;;;;;;;17.30;nan;101471.50;5097088;28;20046;-52
2022/05/21 11:56:03;;;;;;;8.05;2.95;;;;;;;17.39;nan;101466.31;5094257;28;20070;-50
2022/05/21 11:59:00;;;;;;;6.15;3.08;;;;;;;17.62;nan;101460.28;5100573;28;20027;-49
2022/05/21 12:01:41;;;;;;;6.18;2.80;;;;;;;17.98;nan;101455.53;5100326;28;20117;-50
2022/05/21 12:04:36;;;;;;;5.88;3.20;;;;;;;18.36;nan;101450.38;5098444;28;20057;-53
2022/05/21 12:07:04;;;;;;;;;;;;;;;18.35;nan;101452.28;5091500;28;20419;-49
2022/05/21 12:09:31;;;;;;;8.43;3.22;;;;;;;18.52;nan;101467.38;5102698;28;19915;-50
2022/05/21 12:12:16;;;;;;;4.25;2.72;;;;;;;18.60;nan;101461.31;5099360;28;20610;-50
2022/05/21 12:15:16;;;;;;;6.18;2.92;;;;;;;18.79;nan;101472.31;5098777;28;20092;-52
2022/05/21 12:18:02;;;;;;;7.93;3.30;;;;;;;18.69;nan;101470.50;5103521;28;20084;-51
2022/05/21 12:20:47;;;;;;;6.25;3.35;;;;;;;18.47;nan;101453.81;5099842;28;20030;-50
2022/05/21 12:23:14;;;;;;;;;;;;;;;18.32;nan;101450.16;5099222;28;20031;-54
2022/05/21 12:25:42;;;;;;;5.60;3.25;;;;;;;18.27;nan;101447.47;5100341;28;19923;-51
2022/05/21 12:28:11;;;;;;;7.82;2.90;;;;;;;18.12;nan;101463.81;5100014;28;20020;-51
2022/05/21 12:30:37;;;;;;;4.28;2.92;;;;;;;17.95;nan;101460.69;5101792;28;20350;-50